Time;durP1;ratioP1;P1;durP2;ratioP2;P2;SDS_P1;SDS_P2;PMS_P1;PMS_P2;Temp;Humidity;BMP_temperature;BMP_pressure;BME280_temperature;BME280_humidity;BME280_pressure;Samples;Min_cycle;Max_cycle;Signal;HPM_P1;HPM_P2
2023/01/12 00:01:29;;;;;;;18.05;2.65;;;7.70;99.90;;;;;;5111407;27;20051;-85
2023/01/12 00:03:55;;;;;;;16.30;2.83;;;8.00;99.90;;;;;;5127883;27;20449;-85
2023/01/12 00:06:22;;;;;;;13.57;2.38;;;7.70;99.90;;;;;;5093265;27;20486;-84
2023/01/12 00:08:49;;;;;;;14.15;2.42;;;7.70;99.90;;;;;;5093937;27;20039;-84
2023/01/12 00:11:16;;;;;;;12.75;2.22;;;8.30;99.90;;;;;;5109995;27;20410;-83
2023/01/12 00:13:42;;;;;;;13.88;2.05;;;7.80;99.90;;;;;;5110122;27;20039;-84
2023/01/12 00:16:38;;;;;;;25.08;2.67;;;7.80;99.90;;;;;;5110065;27;20447;-83
2023/01/12 00:19:21;;;;;;;16.30;1.88;;;9.20;99.90;;;;;;5109354;27;20107;-83
2023/01/12 00:21:55;;;;;;;23.50;2.10;;;7.90;99.90;;;;;;5110411;27;20039;-83
2023/01/12 00:24:30;;;;;;;11.68;1.52;;;7.90;99.90;;;;;;5127165;27;20122;-83
2023/01/12 00:26:58;;;;;;;15.85;2.00;;;7.90;99.90;;;;;;5126600;27;20044;-83
2023/01/12 00:29:24;;;;;;;20.90;2.88;;;7.90;99.90;;;;;;5093329;27;20035;-84
2023/01/12 00:31:51;;;;;;;22.15;2.75;;;8.00;99.90;;;;;;5126290;27;20502;-82
2023/01/12 00:34:17;;;;;;;25.50;3.42;;;8.00;99.90;;;;;;5109991;27;20544;-84
2023/01/12 00:36:45;;;;;;;13.80;2.00;;;9.10;99.90;;;;;;5092592;27;20055;-84
2023/01/12 00:39:11;;;;;;;22.27;3.53;;;8.10;99.90;;;;;;5110138;27;20248;-84
2023/01/12 00:47:08;;;;;;;21.75;4.40;;;8.90;99.90;;;;;;5113118;27;20432;-84
2023/01/12 00:49:35;;;;;;;20.35;2.80;;;8.10;99.90;;;;;;5091905;28;20057;-84
2023/01/12 00:52:01;;;;;;;24.67;2.42;;;8.10;99.90;;;;;;5109385;27;20664;-84
2023/01/12 00:54:26;;;;;;;23.77;3.17;;;8.90;99.90;;;;;;5126001;27;20134;-84
2023/01/12 00:56:52;;;;;;;24.63;3.10;;;8.50;99.90;;;;;;5075232;27;20370;-83
2023/01/12 00:59:18;;;;;;;19.27;2.63;;;8.10;99.90;;;;;;5092136;27;20126;-84
2023/01/12 01:01:43;;;;;;;29.92;4.38;;;8.10;99.90;;;;;;5108943;27;20042;-84
2023/01/12 01:04:09;;;;;;;23.55;2.45;;;8.10;99.90;;;;;;5109494;27;20043;-83
2023/01/12 01:06:38;;;;;;;24.30;2.50;;;8.10;99.90;;;;;;5109460;27;20114;-84
2023/01/12 01:09:05;;;;;;;20.85;3.00;;;9.40;99.90;;;;;;5092402;27;20039;-83
2023/01/12 01:11:31;;;;;;;28.75;3.88;;;8.50;99.90;;;;;;5108650;27;20046;-83
2023/01/12 01:13:58;;;;;;;30.90;3.08;;;9.00;99.90;;;;;;5109170;27;20039;-84
2023/01/12 01:16:24;;;;;;;22.58;3.67;;;8.10;99.90;;;;;;5092149;27;20043;-84
2023/01/12 01:18:50;;;;;;;17.73;2.28;;;8.10;99.90;;;;;;5108756;27;20431;-84
2023/01/12 01:21:17;;;;;;;16.10;3.42;;;8.10;99.90;;;;;;5092699;27;20043;-83
2023/01/12 01:23:43;;;;;;;26.70;4.22;;;8.20;99.90;;;;;;5092301;27;20095;-83
2023/01/12 01:26:18;;;;;;;19.40;3.17;;;8.20;99.90;;;;;;5109687;27;20039;-84
2023/01/12 01:28:44;;;;;;;16.50;2.85;;;8.20;99.90;;;;;;5109467;27;20043;-83
2023/01/12 01:31:19;;;;;;;17.85;2.15;;;8.20;99.90;;;;;;5126519;27;20091;-83
2023/01/12 01:33:45;;;;;;;22.30;4.70;;;8.70;99.90;;;;;;5126513;27;20038;-84
2023/01/12 01:36:12;;;;;;;20.02;2.90;;;8.20;99.90;;;;;;5109234;27;20066;-83
2023/01/12 01:38:38;;;;;;;27.42;3.42;;;9.10;99.90;;;;;;5126182;27;20046;-83
2023/01/12 01:41:05;;;;;;;26.52;2.60;;;8.10;99.90;;;;;;5108083;27;20055;-83
2023/01/12 01:44:00;;;;;;;22.95;3.35;;;8.20;99.90;;;;;;5108530;27;20050;-83
2023/01/12 01:46:46;;;;;;;22.55;3.30;;;8.80;99.90;;;;;;5108480;27;20381;-83
2023/01/12 01:49:25;;;;;;;24.90;4.13;;;8.40;99.90;;;;;;5107903;27;20054;-83
2023/01/12 01:51:53;;;;;;;22.67;4.05;;;8.20;99.90;;;;;;5108481;28;20090;-83
2023/01/12 01:54:19;;;;;;;23.70;3.50;;;8.10;99.90;;;;;;5125522;27;20375;-83
2023/01/12 01:56:46;;;;;;;23.63;2.83;;;8.10;99.90;;;;;;5125459;27;20069;-83
2023/01/12 01:59:19;;;;;;;24.00;3.42;;;8.10;99.90;;;;;;5091611;28;20047;-83
2023/01/12 02:01:45;;;;;;;17.25;3.45;;;8.10;99.90;;;;;;5124332;27;20062;-83
2023/01/12 02:04:12;;;;;;;25.90;3.30;;;8.80;99.90;;;;;;5125475;28;20050;-83
2023/01/12 02:06:38;;;;;;;21.08;2.65;;;9.20;99.90;;;;;;5091653;28;20363;-83
2023/01/12 02:09:13;;;;;;;21.20;3.30;;;8.10;99.90;;;;;;5091914;28;20392;-83
2023/01/12 02:17:21;;;;;;;19.00;4.28;;;9.00;99.90;;;;;;5111388;28;20043;-83
2023/01/12 02:19:58;;;;;;;21.33;3.10;;;8.20;99.90;;;;;;5125592;28;20043;-83
2023/01/12 02:23:02;;;;;;;23.48;3.60;;;8.20;99.90;;;;;;5108281;28;20497;-82
2023/01/12 02:25:54;;;;;;;31.25;3.42;;;8.20;99.90;;;;;;5125218;28;20046;-83
2023/01/12 02:28:35;;;;;;;21.45;2.95;;;8.20;99.90;;;;;;5107777;28;20126;-82
2023/01/12 02:31:23;;;;;;;31.40;3.42;;;8.20;99.90;;;;;;5124923;28;20130;-82
2023/01/12 02:34:16;;;;;;;23.10;4.85;;;8.30;99.90;;;;;;5107981;28;20053;-82
2023/01/12 02:37:05;;;;;;;29.02;4.38;;;8.30;99.90;;;;;;5108129;28;20070;-82
2023/01/12 02:39:42;;;;;;;28.13;4.10;;;8.30;99.90;;;;;;5107828;28;20039;-83
2023/01/12 02:45:31;;;;;;;23.25;2.85;;;8.40;99.90;;;;;;5101633;28;20138;-84
2023/01/12 02:48:07;;;;;;;25.50;4.72;;;8.50;99.90;;;;;;5125062;28;20524;-85
2023/01/12 02:50:48;;;;;;;30.00;3.28;;;8.00;99.90;;;;;;5124578;28;20065;-84
2023/01/12 02:53:21;;;;;;;21.20;2.92;;;9.10;99.90;;;;;;5107485;28;20090;-85
2023/01/12 02:55:47;;;;;;;;;;;8.40;99.90;;;;;;5108712;28;20126;-85
2023/01/12 02:58:17;;;;;;;20.00;2.75;;;8.40;99.90;;;;;;5107645;28;19919;-85
2023/01/12 03:00:46;;;;;;;25.48;3.00;;;9.20;99.90;;;;;;5107613;28;20047;-86
2023/01/12 03:03:12;;;;;;;26.50;3.08;;;8.40;99.90;;;;;;5107529;28;20039;-85
2023/01/12 03:05:42;;;;;;;21.50;3.03;;;8.40;99.90;;;;;;5090677;28;20042;-84
2023/01/12 03:08:16;;;;;;;24.63;4.03;;;8.30;99.90;;;;;;5108143;28;20043;-85
2023/01/12 03:11:05;;;;;;;24.08;3.60;;;8.40;99.90;;;;;;5124653;28;20039;-85
2023/01/12 03:13:34;;;;;;;16.67;2.60;;;8.30;99.90;;;;;;5126320;27;20047;-84
2023/01/12 03:16:03;;;;;;;15.98;2.97;;;8.40;99.90;;;;;;5128717;27;20035;-84
2023/01/12 03:18:34;;;;;;;24.05;2.47;;;8.90;99.90;;;;;;5110606;27;20050;-83
2023/01/12 03:21:11;;;;;;;28.77;3.30;;;9.60;99.90;;;;;;5128405;27;20041;-83
2023/01/12 03:24:09;;;;;;;27.77;3.65;;;8.40;99.90;;;;;;5128316;27;20146;-84
2023/01/12 03:26:38;;;;;;;21.30;3.67;;;8.50;99.90;;;;;;5108745;27;20059;-83
2023/01/12 03:29:13;;;;;;;22.10;3.55;;;8.50;99.90;;;;;;5128262;27;20047;-84
2023/01/12 03:31:40;;;;;;;19.90;3.63;;;8.80;99.90;;;;;;5110366;27;20099;-84
2023/01/12 03:34:07;;;;;;;24.55;2.83;;;8.60;99.90;;;;;;5094861;27;20043;-84
2023/01/12 03:36:33;;;;;;;17.55;3.17;;;9.60;99.90;;;;;;5110995;27;20043;-84
2023/01/12 03:39:31;;;;;;;15.75;2.72;;;9.60;99.90;;;;;;5131915;27;20042;-86
2023/01/12 03:42:11;;;;;;;20.17;2.97;;;8.50;99.90;;;;;;5112099;27;20050;-84
2023/01/12 03:44:56;;;;;;;21.40;4.07;;;8.50;99.90;;;;;;5111950;27;20054;-84
2023/01/12 03:47:27;;;;;;;21.48;2.88;;;8.50;99.90;;;;;;5112830;27;20401;-85
2023/01/12 03:50:02;;;;;;;26.83;2.92;;;9.40;99.90;;;;;;5128829;27;20554;-83
2023/01/12 03:52:29;;;;;;;24.42;3.35;;;8.70;99.90;;;;;;5128692;27;20050;-84
2023/01/12 03:54:57;;;;;;;22.75;3.42;;;9.50;99.90;;;;;;5110601;27;20043;-84
2023/01/12 03:57:24;;;;;;;17.85;3.78;;;9.30;99.90;;;;;;5094031;27;20130;-84
2023/01/12 03:59:51;;;;;;;12.57;1.98;;;9.30;99.90;;;;;;5127908;27;20049;-84
2023/01/12 04:02:17;;;;;;;13.02;1.67;;;8.60;99.90;;;;;;5127499;27;20047;-84
2023/01/12 04:04:43;;;;;;;18.95;2.47;;;8.60;99.90;;;;;;5094387;27;20047;-83
2023/01/12 04:07:10;;;;;;;16.95;3.92;;;8.70;99.90;;;;;;5127428;27;20580;-82
2023/01/12 04:09:36;;;;;;;19.98;1.83;;;8.70;99.90;;;;;;5126883;27;20043;-83
2023/01/12 04:12:11;;;;;;;11.88;1.70;;;9.10;99.90;;;;;;5093108;27;20047;-83
2023/01/12 04:14:41;;;;;;;18.17;2.75;;;8.70;99.90;;;;;;5126672;27;20088;-83
2023/01/12 04:17:09;;;;;;;18.00;2.58;;;8.90;99.90;;;;;;5110821;27;20527;-83
2023/01/12 04:19:35;;;;;;;24.40;3.60;;;8.70;99.90;;;;;;5127033;27;20852;-83
2023/01/12 04:24:45;;;;;;;19.55;2.53;;;8.80;99.90;;;;;;5112796;27;20043;-83
2023/01/12 04:27:11;;;;;;;16.05;1.90;;;8.80;99.90;;;;;;5109861;27;20486;-83
2023/01/12 04:29:37;;;;;;;15.88;2.53;;;8.80;99.90;;;;;;5126570;27;20512;-83
2023/01/12 04:32:03;;;;;;;15.93;2.38;;;8.80;99.90;;;;;;5092587;27;20035;-83
2023/01/12 04:34:29;;;;;;;17.58;2.33;;;8.80;99.90;;;;;;5127159;27;20486;-83
2023/01/12 04:36:55;;;;;;;12.93;2.60;;;8.80;99.90;;;;;;5109303;27;20131;-83
2023/01/12 04:39:22;;;;;;;12.55;2.30;;;8.80;99.90;;;;;;5093903;27;20032;-83
2023/01/12 04:41:48;;;;;;;13.75;2.13;;;8.80;99.90;;;;;;5093453;27;20037;-83
2023/01/12 04:44:13;;;;;;;12.77;2.20;;;8.80;99.90;;;;;;5111077;27;20039;-83
2023/01/12 04:46:39;;;;;;;10.35;1.63;;;8.80;99.90;;;;;;5110612;27;20059;-86
2023/01/12 04:49:08;;;;;;;8.85;1.27;;;8.70;99.90;;;;;;5109736;27;20039;-84
2023/01/12 04:51:34;;;;;;;10.27;1.52;;;8.70;99.90;;;;;;5109602;27;20446;-84
2023/01/12 04:53:59;;;;;;;7.88;1.15;;;9.10;99.90;;;;;;5125905;27;20047;-83
2023/01/12 04:56:25;;;;;;;7.88;0.95;;;8.10;99.90;;;;;;5092628;27;20116;-83
2023/01/12 04:58:58;;;;;;;6.50;1.10;;;8.70;99.90;;;;;;5108670;27;20075;-83
2023/01/12 05:01:25;;;;;;;11.32;2.05;;;8.90;99.90;;;;;;5126111;27;20482;-82
2023/01/12 05:03:53;;;;;;;4.65;1.00;;;8.70;99.90;;;;;;5091833;27;20489;-84
2023/01/12 05:06:19;;;;;;;10.07;1.20;;;9.20;99.90;;;;;;5126012;27;20036;-82
2023/01/12 05:11:29;;;;;;;5.85;0.73;;;8.60;99.90;;;;;;5112152;27;20050;-84
2023/01/12 05:13:56;;;;;;;5.13;0.75;;;8.30;99.90;;;;;;5126816;27;20125;-84
2023/01/12 05:16:22;;;;;;;7.53;1.15;;;8.60;99.90;;;;;;5126446;27;20047;-83
2023/01/12 05:18:48;;;;;;;6.80;0.80;;;8.30;99.90;;;;;;5128956;27;20099;-83
2023/01/12 05:21:16;;;;;;;5.55;0.80;;;8.60;99.90;;;;;;5128797;27;20080;-82
2023/01/12 05:23:43;;;;;;;4.57;0.88;;;8.60;99.90;;;;;;5109598;27;20039;-83
2023/01/12 05:26:11;;;;;;;3.13;0.52;;;8.60;99.90;;;;;;5109240;27;20442;-84
2023/01/12 05:28:37;;;;;;;6.65;1.00;;;8.80;99.90;;;;;;5092261;27;20046;-83
2023/01/12 05:31:06;;;;;;;5.85;0.50;;;8.60;99.90;;;;;;5125909;27;20047;-83
2023/01/12 05:33:33;;;;;;;7.72;1.00;;;8.90;99.90;;;;;;5108654;27;20290;-82
2023/01/12 05:35:58;;;;;;;5.10;0.88;;;8.60;99.90;;;;;;5124506;27;20042;-82
2023/01/12 05:38:24;;;;;;;4.50;0.70;;;8.60;99.90;;;;;;5108721;27;20039;-81
2023/01/12 05:40:50;;;;;;;5.43;0.80;;;9.70;99.90;;;;;;5124570;27;20074;-86
2023/01/12 05:46:04;;;;;;;3.47;0.65;;;8.50;99.90;;;;;;5125783;27;20050;-82
2023/01/12 05:48:31;;;;;;;4.63;0.50;;;8.50;99.90;;;;;;5125942;27;20082;-83
2023/01/12 05:51:04;;;;;;;4.60;0.57;;;8.50;99.90;;;;;;5108617;27;20065;-84
2023/01/12 05:53:30;;;;;;;2.88;0.50;;;8.50;99.90;;;;;;5108472;28;20043;-83
2023/01/12 05:55:56;;;;;;;1.80;0.70;;;8.50;99.90;;;;;;5109329;27;20488;-84
2023/01/12 05:58:22;;;;;;;3.50;0.80;;;8.50;99.90;;;;;;5108857;28;20046;-83
2023/01/12 06:00:48;;;;;;;4.47;0.40;;;8.50;99.90;;;;;;5108094;28;20780;-84
2023/01/12 06:03:14;;;;;;;4.72;0.65;;;9.40;99.90;;;;;;5108727;28;20039;-85
2023/01/12 06:05:40;;;;;;;2.60;0.70;;;8.50;99.90;;;;;;5108147;28;20047;-83
2023/01/12 06:08:06;;;;;;;4.65;1.15;;;8.50;99.90;;;;;;5125787;28;20038;-87
2023/01/12 06:10:33;;;;;;;1.75;0.45;;;8.80;99.90;;;;;;5107474;28;20043;-84
2023/01/12 06:15:44;;;;;;;2.90;0.50;;;8.50;99.90;;;;;;5125743;28;20100;-82
2023/01/12 06:18:09;;;;;;;2.33;0.50;;;8.50;99.90;;;;;;5125496;28;20039;-82
2023/01/12 06:20:35;;;;;;;3.10;0.50;;;8.90;99.90;;;;;;5126908;27;20062;-82
2023/01/12 06:23:03;;;;;;;1.27;0.40;;;8.60;99.90;;;;;;5124963;28;20050;-83
2023/01/12 06:25:30;;;;;;;2.38;0.30;;;9.10;99.90;;;;;;5125221;28;20035;-83
2023/01/12 06:27:56;;;;;;;2.72;0.30;;;8.60;99.90;;;;;;5091094;28;20047;-81
2023/01/12 06:30:22;;;;;;;0.60;0.22;;;8.60;99.90;;;;;;5107963;28;20054;-83
2023/01/12 06:32:48;;;;;;;3.88;0.30;;;8.70;99.90;;;;;;5107977;28;20045;-82
2023/01/12 06:35:14;;;;;;;5.00;0.40;;;8.70;99.90;;;;;;5108564;28;20039;-82
2023/01/12 06:37:40;;;;;;;0.57;0.20;;;8.70;99.90;;;;;;5125768;28;20122;-83
2023/01/12 06:40:07;;;;;;;1.05;0.30;;;8.70;99.90;;;;;;5090534;28;20491;-82
2023/01/12 06:42:32;;;;;;;2.50;0.32;;;8.70;99.90;;;;;;5127046;28;20354;-83
2023/01/12 06:45:02;;;;;;;3.03;0.30;;;9.00;99.90;;;;;;5125775;28;20354;-83
2023/01/12 06:47:30;;;;;;;1.70;0.28;;;8.80;99.90;;;;;;5108582;28;20040;-84
2023/01/12 06:49:56;;;;;;;0.43;0.15;;;8.80;99.90;;;;;;5111122;27;20058;-81
2023/01/12 06:52:24;;;;;;;1.80;0.20;;;8.90;99.90;;;;;;5112220;27;20398;-82
2023/01/12 06:54:51;;;;;;;1.25;0.30;;;8.90;99.90;;;;;;5128877;27;20039;-82
2023/01/12 06:57:17;;;;;;;1.02;0.20;;;8.90;99.90;;;;;;5111046;27;20103;-90
2023/01/12 06:59:43;;;;;;;1.13;0.20;;;8.90;99.90;;;;;;5112652;27;20154;-84
2023/01/12 07:02:11;;;;;;;0.47;0.20;;;9.00;99.90;;;;;;5110956;27;20478;-83
2023/01/12 07:04:37;;;;;;;1.38;0.40;;;9.00;99.90;;;;;;5112312;27;20043;-85
2023/01/12 07:07:03;;;;;;;1.10;0.20;;;9.10;99.90;;;;;;5111756;27;20817;-84
2023/01/12 07:09:28;;;;;;;3.10;0.40;;;9.10;99.90;;;;;;5111572;27;20039;-84
2023/01/12 07:11:54;;;;;;;2.75;0.32;;;9.20;99.90;;;;;;5095000;27;20047;-85
2023/01/12 07:14:20;;;;;;;3.70;0.60;;;9.20;99.90;;;;;;5112964;27;20088;-85
2023/01/12 07:16:45;;;;;;;6.15;1.17;;;9.30;99.90;;;;;;5113305;27;20130;-85
2023/01/12 07:19:11;;;;;;;6.20;1.23;;;9.40;99.90;;;;;;5130471;27;20035;-83
2023/01/12 07:21:37;;;;;;;14.23;1.52;;;9.50;99.90;;;;;;5095771;27;20486;-84
2023/01/12 07:24:03;;;;;;;10.38;1.00;;;9.50;99.90;;;;;;5111455;27;20050;-84
2023/01/12 07:26:28;;;;;;;4.47;0.73;;;9.50;99.90;;;;;;5094775;27;20039;-85
2023/01/12 07:28:55;;;;;;;8.07;1.38;;;9.60;99.90;;;;;;5094580;27;20549;-83
2023/01/12 07:31:20;;;;;;;7.93;1.33;;;9.60;99.90;;;;;;5110448;27;20055;-84
2023/01/12 07:33:46;;;;;;;9.35;1.65;;;9.70;99.90;;;;;;5094776;27;20043;-83
2023/01/12 07:36:12;;;;;;;10.27;1.80;;;9.80;99.90;;;;;;5077263;27;20402;-83
2023/01/12 07:38:37;;;;;;;8.02;1.23;;;9.80;99.90;;;;;;5111381;27;20501;-83
2023/01/12 07:41:04;;;;;;;12.40;1.58;;;9.80;99.90;;;;;;5111537;27;20424;-84
2023/01/12 07:43:32;;;;;;;11.38;2.55;;;9.90;99.90;;;;;;5111159;27;20089;-86
2023/01/12 07:45:59;;;;;;;12.95;1.95;;;10.80;99.90;;;;;;5095775;27;20047;-86
2023/01/12 07:48:26;;;;;;;13.10;1.60;;;10.00;99.90;;;;;;5127888;27;20040;-84
2023/01/12 07:50:53;;;;;;;19.95;2.85;;;10.00;99.90;;;;;;5111002;27;20083;-84
2023/01/12 07:53:19;;;;;;;22.63;2.47;;;10.10;99.90;;;;;;5093782;27;20039;-83
2023/01/12 07:55:45;;;;;;;22.13;2.47;;;10.10;99.90;;;;;;5094725;27;20045;-83
2023/01/12 07:58:11;;;;;;;16.00;2.28;;;10.10;99.90;;;;;;5094349;27;20047;-83
2023/01/12 08:00:36;;;;;;;16.15;2.60;;;10.20;99.90;;;;;;5110607;27;20088;-82
2023/01/12 08:03:06;;;;;;;17.25;2.38;;;10.20;99.90;;;;;;5128640;27;20071;-83
2023/01/12 08:05:33;;;;;;;16.75;2.33;;;10.20;99.90;;;;;;5110693;27;20393;-83
2023/01/12 08:07:59;;;;;;;13.98;2.42;;;10.30;99.90;;;;;;5128069;27;20476;-83
2023/01/12 08:10:24;;;;;;;14.75;2.65;;;10.30;99.90;;;;;;5092899;27;20575;-82
2023/01/12 08:12:50;;;;;;;18.70;2.28;;;10.50;99.90;;;;;;5110580;27;20074;-82
2023/01/12 08:15:16;;;;;;;19.42;3.28;;;10.40;99.90;;;;;;5110513;27;20382;-82
2023/01/12 08:17:49;;;;;;;24.98;3.30;;;10.50;99.90;;;;;;5110077;27;20054;-82
2023/01/12 08:20:22;;;;;;;27.23;3.00;;;10.50;99.90;;;;;;5110577;27;20047;-83
2023/01/12 08:22:52;;;;;;;17.55;2.53;;;10.60;99.90;;;;;;5126828;27;20512;-83
2023/01/12 08:25:25;;;;;;;19.98;3.60;;;10.60;99.90;;;;;;5127383;27;20039;-83
2023/01/12 08:27:55;;;;;;;14.82;2.53;;;10.70;99.90;;;;;;5109694;27;20116;-83
2023/01/12 08:30:22;;;;;;;15.90;1.90;;;10.70;99.90;;;;;;5093795;27;20144;-83
2023/01/12 08:32:49;;;;;;;10.48;1.95;;;10.70;99.90;;;;;;5093379;27;20043;-85
2023/01/12 08:35:19;;;;;;;21.08;2.30;;;10.80;99.90;;;;;;5109396;27;20393;-83
2023/01/12 08:37:45;;;;;;;19.38;3.22;;;10.80;99.90;;;;;;5109994;27;20047;-83
2023/01/12 08:40:12;;;;;;;16.50;2.45;;;10.80;99.90;;;;;;5109461;27;20058;-82
2023/01/12 08:42:38;;;;;;;20.27;2.28;;;10.80;99.90;;;;;;5127370;27;20043;-83
2023/01/12 08:45:07;;;;;;;18.13;2.70;;;10.80;99.90;;;;;;5109508;27;20050;-83
2023/01/12 08:47:33;;;;;;;15.05;3.22;;;10.60;99.90;;;;;;5126810;27;20043;-83
2023/01/12 08:49:59;;;;;;;16.60;2.50;;;10.80;99.90;;;;;;5109329;27;20047;-83
2023/01/12 08:52:28;;;;;;;12.98;2.40;;;10.80;99.90;;;;;;5126063;27;20122;-82
2023/01/12 08:54:54;;;;;;;18.70;2.38;;;10.80;99.90;;;;;;5109751;27;20044;-82
2023/01/12 08:57:21;;;;;;;14.88;1.80;;;10.90;99.90;;;;;;5091789;27;20054;-83
2023/01/12 08:59:46;;;;;;;17.50;2.88;;;10.90;99.90;;;;;;5109682;27;20585;-83
2023/01/12 09:02:14;;;;;;;15.43;1.70;;;10.90;99.90;;;;;;5092393;27;20228;-83
2023/01/12 09:04:39;;;;;;;12.38;2.10;;;11.00;99.90;;;;;;5109609;27;20045;-83
2023/01/12 09:07:06;;;;;;;11.30;2.28;;;11.00;99.90;;;;;;5126679;27;20039;-83
2023/01/12 09:09:32;;;;;;;18.50;2.20;;;11.30;99.90;;;;;;5116605;27;20458;-84
2023/01/12 09:11:58;;;;;;;12.52;1.67;;;11.00;99.90;;;;;;5115101;27;20095;-83
2023/01/12 09:14:26;;;;;;;14.98;1.90;;;11.20;99.90;;;;;;5114382;27;20082;-83
2023/01/12 09:16:54;;;;;;;14.50;2.90;;;10.90;99.90;;;;;;5114042;27;20389;-83
2023/01/12 09:19:20;;;;;;;8.77;1.70;;;10.90;99.90;;;;;;5098726;27;20095;-83
2023/01/12 09:21:46;;;;;;;12.57;1.92;;;10.90;99.90;;;;;;5096999;27;20358;-83
2023/01/12 09:24:13;;;;;;;19.38;3.90;;;11.00;99.90;;;;;;5080617;27;20043;-83
2023/01/12 09:26:41;;;;;;;12.15;2.95;;;11.00;99.90;;;;;;5130680;27;20133;-85
2023/01/12 09:29:09;;;;;;;12.35;1.95;;;11.00;99.90;;;;;;5114607;27;20382;-84
2023/01/12 09:31:37;;;;;;;8.25;1.60;;;11.10;99.90;;;;;;5131075;27;20066;-83
2023/01/12 09:34:02;;;;;;;11.65;1.73;;;11.10;99.90;;;;;;5113881;27;20482;-84
2023/01/12 09:36:32;;;;;;;16.08;2.70;;;11.10;99.90;;;;;;5115604;27;20130;-85
2023/01/12 09:39:00;;;;;;;12.85;1.90;;;11.00;99.90;;;;;;5134843;27;20096;-84
2023/01/12 09:48:00;;;;;;;11.75;1.88;;;11.60;99.90;;;;;;5127271;27;20438;-86
2023/01/12 09:50:27;;;;;;;17.90;2.55;;;11.10;99.90;;;;;;5131202;27;20139;-85
2023/01/12 09:52:56;;;;;;;14.80;2.13;;;11.00;99.90;;;;;;5111754;27;20042;-87
2023/01/12 09:55:24;;;;;;;19.50;1.65;;;11.00;99.90;;;;;;5112752;27;20051;-85
2023/01/12 09:58:13;;;;;;;16.23;2.65;;;11.00;99.90;;;;;;5129139;27;20035;-85
2023/01/12 10:00:39;;;;;;;25.73;2.22;;;11.10;99.90;;;;;;5131124;28;20080;-85
2023/01/12 10:03:22;;;;;;;10.63;1.67;;;11.10;99.90;;;;;;5137263;28;20107;-85
2023/01/12 10:05:51;;;;;;;12.05;1.85;;;11.20;99.90;;;;;;5134691;28;20486;-86
2023/01/12 10:08:40;;;;;;;13.65;2.78;;;11.10;99.90;;;;;;5119118;28;20122;-85
2023/01/12 10:11:28;;;;;;;18.02;1.98;;;11.10;99.90;;;;;;5115131;28;20051;-86
2023/01/12 10:14:21;;;;;;;12.98;1.63;;;11.10;99.90;;;;;;5131494;28;20398;-85
2023/01/12 10:17:06;;;;;;;;;;;11.00;99.90;;;;;;5115108;28;20099;-86
2023/01/12 10:19:50;;;;;;;18.45;2.00;;;11.00;99.90;;;;;;5113430;28;19964;-84
2023/01/12 10:22:38;;;;;;;15.27;2.00;;;11.00;99.90;;;;;;5112719;27;20043;-84
2023/01/12 10:25:40;;;;;;;16.00;2.17;;;11.00;99.90;;;;;;5134348;27;20078;-85
2023/01/12 10:28:28;;;;;;;12.18;1.95;;;11.00;99.90;;;;;;5133077;27;20047;-85
2023/01/12 10:30:56;;;;;;;14.43;2.40;;;10.90;99.90;;;;;;5115740;27;20035;-85
2023/01/12 10:33:24;;;;;;;19.67;2.53;;;11.30;99.90;;;;;;5133788;27;20046;-86
2023/01/12 10:36:17;;;;;;;11.90;2.67;;;11.00;99.90;;;;;;5132323;27;20468;-84
2023/01/12 10:38:59;;;;;;;10.10;1.15;;;11.00;99.90;;;;;;5132763;27;20062;-84
2023/01/12 10:41:30;;;;;;;9.35;1.75;;;11.10;99.90;;;;;;5133684;27;20099;-86
2023/01/12 10:43:58;;;;;;;9.25;1.42;;;10.90;99.90;;;;;;5132782;27;20047;-88
2023/01/12 10:46:31;;;;;;;9.25;1.88;;;10.90;99.90;;;;;;5116438;27;20449;-88
2023/01/12 10:49:20;;;;;;;16.65;2.03;;;10.90;99.90;;;;;;5116091;27;20047;-90
2023/01/12 10:52:39;;;;;;;17.92;1.67;;;10.90;99.90;;;;;;5132717;27;20059;-92
2023/01/12 10:55:05;;;;;;;17.67;2.22;;;11.00;99.90;;;;;;5113121;27;20501;-89
2023/01/12 10:57:32;;;;;;;15.98;1.98;;;11.00;99.90;;;;;;5098499;27;20081;-88
2023/01/12 11:00:01;;;;;;;12.23;2.17;;;10.10;99.90;;;;;;5132554;27;20107;-88
2023/01/12 11:02:41;;;;;;;12.05;1.95;;;11.10;99.90;;;;;;5133253;27;20462;-87
2023/01/12 11:05:32;;;;;;;12.63;2.08;;;11.10;99.90;;;;;;5132644;27;20062;-88
2023/01/12 11:07:58;;;;;;;11.15;1.67;;;11.10;99.90;;;;;;5133036;27;20122;-89
2023/01/12 11:10:30;;;;;;;13.30;2.33;;;11.10;99.90;;;;;;5132106;27;20091;-87
2023/01/12 11:13:04;;;;;;;9.25;0.60;;;11.10;99.90;;;;;;5132574;27;20526;-87
2023/01/12 11:15:37;;;;;;;11.73;2.03;;;11.10;99.90;;;;;;5132404;27;20517;-89
2023/01/12 11:18:22;;;;;;;17.80;2.70;;;11.10;99.90;;;;;;5116054;27;20054;-88
2023/01/12 11:21:15;;;;;;;13.40;2.50;;;11.10;99.90;;;;;;5115459;27;20039;-87
2023/01/12 11:24:20;;;;;;;9.13;1.50;;;11.20;99.90;;;;;;5113829;27;20047;-88
2023/01/12 11:27:25;;;;;;;13.68;1.70;;;11.20;99.90;;;;;;5115171;27;20053;-87
2023/01/12 11:30:04;;;;;;;9.60;1.33;;;11.30;99.90;;;;;;5123624;27;20065;-83
2023/01/12 11:32:38;;;;;;;15.48;2.88;;;11.30;99.90;;;;;;5132889;27;20046;-85
2023/01/12 11:35:23;;;;;;;12.32;1.88;;;11.40;99.90;;;;;;5115960;27;20050;-85
2023/01/12 11:37:53;;;;;;;19.42;1.63;;;11.40;99.90;;;;;;5117452;27;20070;-83
2023/01/12 11:40:29;;;;;;;15.65;1.90;;;11.50;99.90;;;;;;5132109;27;20051;-86
2023/01/12 11:45:57;;;;;;;13.57;2.17;;;11.60;99.90;;;;;;5133283;27;20409;-85
2023/01/12 11:48:31;;;;;;;21.20;3.20;;;11.60;99.90;;;;;;5117154;27;20042;-84
2023/01/12 11:50:58;;;;;;;13.05;1.50;;;11.70;99.90;;;;;;5132287;27;20107;-85
2023/01/12 11:53:24;;;;;;;19.73;1.95;;;12.20;99.90;;;;;;5129473;27;20059;-86
2023/01/12 11:56:07;;;;;;;18.63;1.95;;;11.70;99.90;;;;;;5130777;27;20043;-86
2023/01/12 11:58:55;;;;;;;12.57;1.40;;;11.80;99.90;;;;;;5129927;27;20127;-87
2023/01/12 12:01:38;;;;;;;18.23;2.33;;;11.80;99.90;;;;;;5112403;27;20078;-84
2023/01/12 12:04:46;;;;;;;13.88;2.22;;;11.80;99.90;;;;;;5130870;27;20102;-86
2023/01/12 12:07:31;;;;;;;20.80;1.80;;;11.80;99.90;;;;;;5113312;27;20083;-86
2023/01/12 12:10:32;;;;;;;15.60;1.83;;;11.90;99.90;;;;;;5129589;27;20043;-86
2023/01/12 12:13:10;;;;;;;9.15;1.45;;;11.90;99.90;;;;;;5113035;27;20486;-86
2023/01/12 12:15:54;;;;;;;9.00;1.77;;;11.90;99.90;;;;;;5129453;27;20043;-87
2023/01/12 12:18:26;;;;;;;14.05;2.10;;;11.90;99.90;;;;;;5129459;27;20054;-86
2023/01/12 12:21:02;;;;;;;14.25;1.38;;;11.90;99.90;;;;;;5130480;27;20481;-84
2023/01/12 12:23:42;;;;;;;16.17;1.70;;;12.00;99.90;;;;;;5111796;27;20068;-84
2023/01/12 12:26:12;;;;;;;19.17;1.73;;;11.90;99.90;;;;;;5129603;27;20055;-85
2023/01/12 12:28:49;;;;;;;11.85;2.00;;;11.90;99.90;;;;;;5129666;27;20039;-85
2023/01/12 12:31:49;;;;;;;14.30;1.70;;;11.90;99.90;;;;;;5129167;27;20051;-85
2023/01/12 12:34:44;;;;;;;15.20;1.80;;;11.90;99.90;;;;;;5122187;27;20166;-85
2023/01/12 12:37:31;;;;;;;12.40;2.08;;;11.90;99.90;;;;;;5128861;27;20043;-85
2023/01/12 12:40:12;;;;;;;13.68;2.33;;;11.90;99.90;;;;;;5111691;27;20058;-85
2023/01/12 12:45:55;;;;;;;25.35;2.28;;;11.90;99.90;;;;;;5128290;27;20050;-85
2023/01/12 12:48:51;;;;;;;11.68;2.63;;;11.90;99.90;;;;;;5111784;27;20098;-82
2023/01/12 12:51:17;;;;;;;10.98;1.60;;;11.80;99.90;;;;;;5129146;27;20095;-86
2023/01/12 12:53:51;;;;;;;16.38;2.88;;;11.70;99.90;;;;;;5128558;27;20244;-85
2023/01/12 12:56:19;;;;;;;16.90;1.85;;;11.70;99.90;;;;;;5129644;27;20485;-86
2023/01/12 12:58:54;;;;;;;14.82;2.03;;;11.60;99.90;;;;;;5129595;27;20333;-85
2023/01/12 13:01:22;;;;;;;18.50;4.00;;;11.50;99.90;;;;;;5129306;27;20039;-85
2023/01/12 13:04:01;;;;;;;17.17;1.60;;;11.50;99.90;;;;;;5130022;27;20507;-85
2023/01/12 13:06:40;;;;;;;16.80;2.92;;;11.40;99.90;;;;;;5128242;27;20051;-85
2023/01/12 13:09:15;;;;;;;13.40;2.25;;;11.40;99.90;;;;;;5111989;27;20366;-85
2023/01/12 13:11:57;;;;;;;11.68;1.77;;;11.40;99.90;;;;;;5128142;27;20516;-85
2023/01/12 13:14:30;;;;;;;11.68;1.77;;;11.50;99.90;;;;;;5128787;27;20047;-85
2023/01/12 13:17:00;;;;;;;16.65;2.75;;;11.50;99.90;;;;;;5112858;27;20152;-85
2023/01/12 13:19:45;;;;;;;13.63;2.65;;;11.50;99.90;;;;;;5111036;27;20043;-85
2023/01/12 13:22:36;;;;;;;14.23;1.95;;;11.50;99.90;;;;;;5129302;27;20498;-85
2023/01/12 13:25:21;;;;;;;17.73;2.10;;;11.50;99.90;;;;;;5129532;27;20047;-85
2023/01/12 13:28:04;;;;;;;12.43;2.33;;;11.50;99.90;;;;;;5127790;27;20051;-86
2023/01/12 13:30:30;;;;;;;16.58;3.25;;;11.60;99.90;;;;;;5111532;27;20050;-85
2023/01/12 13:32:59;;;;;;;23.20;2.38;;;11.60;99.90;;;;;;5114189;27;20035;-85
2023/01/12 13:35:34;;;;;;;19.17;2.72;;;11.60;99.90;;;;;;5136257;27;20393;-85
2023/01/12 13:38:18;;;;;;;17.67;2.38;;;11.50;99.90;;;;;;5117297;27;20409;-86
2023/01/12 13:40:44;;;;;;;14.82;1.85;;;11.60;99.90;;;;;;5116902;27;20071;-86
2023/01/12 13:43:21;;;;;;;18.23;2.30;;;11.60;99.90;;;;;;5136749;27;20035;-86
2023/01/12 13:46:10;;;;;;;16.45;2.70;;;11.60;99.90;;;;;;5113645;27;20051;-86
2023/01/12 13:48:36;;;;;;;16.42;2.92;;;11.60;99.90;;;;;;5100997;27;20145;-86